createdAt,value
2018-03-18T00:00:29.314Z,2.97
2018-03-18T00:03:01.687Z,3.03
2018-03-18T00:05:28.925Z,3.13
2018-03-18T00:07:56.229Z,4.87
2018-03-18T00:10:24.153Z,4.23
2018-03-18T00:12:52.557Z,3.27
2018-03-18T00:15:19.914Z,3.07
2018-03-18T00:17:47.233Z,4.00
2018-03-18T00:20:14.535Z,2.90
2018-03-18T00:22:42.845Z,3.33
2018-03-18T00:25:09.980Z,3.10
2018-03-18T00:27:37.245Z,3.40
2018-03-18T00:30:04.320Z,4.20
2018-03-18T00:32:31.580Z,2.97
2018-03-18T00:34:58.742Z,3.50
2018-03-18T00:37:31.805Z,3.60
2018-03-18T00:39:59.122Z,3.23
2018-03-18T00:42:26.621Z,3.20
2018-03-18T00:44:53.977Z,3.17
2018-03-18T00:47:21.260Z,3.20
2018-03-18T00:49:48.572Z,3.10
2018-03-18T00:52:19.471Z,3.03
2018-03-18T00:54:46.671Z,3.20
2018-03-18T00:57:13.901Z,3.10
2018-03-18T00:59:41.224Z,3.87
2018-03-18T01:02:09.661Z,3.60
2018-03-18T01:04:36.852Z,3.50
2018-03-18T01:07:03.968Z,3.63
2018-03-18T01:09:31.230Z,3.40
2018-03-18T01:11:59.707Z,3.73
2018-03-18T01:14:26.898Z,3.60
2018-03-18T01:16:54.180Z,3.30
2018-03-18T01:19:21.348Z,3.50
2018-03-18T01:21:49.617Z,3.70
2018-03-18T01:24:16.849Z,3.00
2018-03-18T01:26:44.162Z,3.23
2018-03-18T01:29:11.290Z,3.20
2018-03-18T01:31:42.529Z,3.33
2018-03-18T01:34:09.830Z,3.00
2018-03-18T01:36:37.313Z,3.67
2018-03-18T01:39:04.498Z,4.03
2018-03-18T01:41:35.315Z,3.50
2018-03-18T01:44:02.473Z,3.30
2018-03-18T01:46:29.870Z,4.00
2018-03-18T01:48:57.059Z,3.00
2018-03-18T01:51:29.740Z,2.90
2018-03-18T01:53:56.954Z,3.60
2018-03-18T01:56:24.106Z,3.00
2018-03-18T02:01:40.081Z,4.87
2018-03-18T02:04:07.358Z,3.87
2018-03-18T02:06:34.561Z,3.87
2018-03-18T02:09:01.829Z,4.40
2018-03-18T02:11:31.035Z,3.47
2018-03-18T02:13:58.261Z,3.77
2018-03-18T02:16:25.533Z,3.20
2018-03-18T02:18:52.695Z,3.30
2018-03-18T02:21:23.512Z,4.10
2018-03-18T02:23:50.821Z,3.30
2018-03-18T02:26:17.957Z,3.80
2018-03-18T02:28:45.105Z,3.63
2018-03-18T02:31:14.074Z,4.63
2018-03-18T02:33:41.311Z,3.50
2018-03-18T02:36:08.582Z,3.43
2018-03-18T02:38:35.818Z,3.60
2018-03-18T02:41:04.174Z,3.30
2018-03-18T02:43:32.242Z,3.60
2018-03-18T02:45:59.818Z,3.83
2018-03-18T02:48:27.092Z,4.00
2018-03-18T02:50:55.365Z,3.77
2018-03-18T02:53:22.987Z,3.73
2018-03-18T02:55:50.246Z,4.00
2018-03-18T02:58:17.448Z,3.27
2018-03-18T03:00:44.753Z,3.60
2018-03-18T03:03:12.112Z,3.20
2018-03-18T03:05:40.230Z,3.57
2018-03-18T03:08:08.111Z,3.27
2018-03-18T03:10:36.113Z,3.97
2018-03-18T03:13:04.390Z,3.77
2018-03-18T03:15:31.580Z,3.30
2018-03-18T03:17:58.966Z,3.93
2018-03-18T03:20:26.117Z,3.73
2018-03-18T03:22:57.239Z,3.93
2018-03-18T03:25:24.556Z,3.60
2018-03-18T03:27:51.961Z,3.57
2018-03-18T03:30:19.256Z,3.23
2018-03-18T03:32:47.547Z,3.43
2018-03-18T03:35:14.742Z,4.07
2018-03-18T03:37:41.969Z,3.57
2018-03-18T03:40:09.182Z,4.03
2018-03-18T03:42:36.588Z,6.60
2018-03-18T03:45:04.237Z,5.40
2018-03-18T03:47:32.184Z,5.97
2018-03-18T03:49:59.370Z,4.93
2018-03-18T03:52:30.263Z,4.50
2018-03-18T03:54:57.507Z,3.70
2018-03-18T03:57:24.612Z,4.30
2018-03-18T03:59:51.844Z,4.30
2018-03-18T04:02:22.196Z,3.63
2018-03-18T04:04:49.411Z,3.40
2018-03-18T04:07:16.669Z,7.23
2018-03-18T04:09:43.821Z,5.47
2018-03-18T04:12:12.237Z,4.60
2018-03-18T04:14:39.545Z,4.47
2018-03-18T04:17:06.819Z,4.97
2018-03-18T04:19:33.903Z,4.47
2018-03-18T04:22:02.215Z,4.20
2018-03-18T04:24:29.366Z,5.93
2018-03-18T04:26:56.601Z,6.60
2018-03-18T04:29:23.746Z,5.03
2018-03-18T04:31:54.360Z,5.80
2018-03-18T04:34:21.550Z,14.00
2018-03-18T04:36:48.798Z,16.07
2018-03-18T04:39:21.993Z,8.07
2018-03-18T04:41:51.421Z,5.50
2018-03-18T04:44:18.601Z,5.37
2018-03-18T04:46:45.901Z,4.03
2018-03-18T04:49:13.080Z,4.17
2018-03-18T04:51:41.554Z,3.73
2018-03-18T04:54:09.667Z,4.43
2018-03-18T04:56:38.145Z,4.57
2018-03-18T04:59:05.431Z,5.27
2018-03-18T05:01:33.897Z,5.53
2018-03-18T05:04:01.035Z,7.13
2018-03-18T05:06:28.917Z,6.67
2018-03-18T05:08:56.444Z,8.67
2018-03-18T05:11:26.985Z,7.70
2018-03-18T05:13:54.569Z,4.73
2018-03-18T05:16:21.720Z,5.03
2018-03-18T05:18:49.078Z,4.23
2018-03-18T05:21:20.225Z,4.83
2018-03-18T05:23:47.381Z,4.10
2018-03-18T05:26:14.608Z,4.50
2018-03-18T05:28:41.868Z,5.47
2018-03-18T05:31:10.261Z,5.80
2018-03-18T05:33:37.606Z,4.50
2018-03-18T05:36:04.829Z,4.03
2018-03-18T05:38:32.116Z,5.10
2018-03-18T05:41:00.574Z,4.90
2018-03-18T05:43:27.867Z,4.77
2018-03-18T05:45:54.939Z,5.63
2018-03-18T05:48:23.026Z,5.17
2018-03-18T05:50:51.502Z,4.90
2018-03-18T05:53:18.558Z,5.07
2018-03-18T05:55:45.833Z,6.13
2018-03-18T05:58:13.002Z,5.67
2018-03-18T06:00:44.297Z,7.30
2018-03-18T06:03:11.624Z,6.90
2018-03-18T06:05:38.803Z,7.77
2018-03-18T06:08:06.527Z,7.17
2018-03-18T06:10:34.701Z,8.47
2018-03-18T06:13:02.659Z,9.30
2018-03-18T06:15:29.819Z,8.40
2018-03-18T06:17:56.974Z,9.67
2018-03-18T06:20:27.258Z,8.83
2018-03-18T06:22:55.078Z,10.87
2018-03-18T06:25:23.205Z,10.87
2018-03-18T06:27:50.492Z,16.43
2018-03-18T06:30:17.894Z,13.60
2018-03-18T06:32:45.473Z,13.17
2018-03-18T06:35:12.754Z,13.03
2018-03-18T06:37:40.066Z,12.57
2018-03-18T06:40:08.090Z,12.30
2018-03-18T06:42:35.406Z,12.97
2018-03-18T06:45:02.693Z,12.40
2018-03-18T06:47:29.910Z,11.60
2018-03-18T06:49:57.599Z,12.10
2018-03-18T06:52:27.808Z,11.30
2018-03-18T06:54:55.034Z,11.80
2018-03-18T06:57:22.224Z,10.63
2018-03-18T06:59:49.654Z,13.77
2018-03-18T07:02:17.814Z,13.67
2018-03-18T07:04:45.114Z,12.83
2018-03-18T07:07:12.406Z,10.43
2018-03-18T07:09:39.730Z,9.93
2018-03-18T07:12:07.024Z,16.20
2018-03-18T07:14:34.414Z,14.20
2018-03-18T07:17:02.277Z,14.87
2018-03-18T07:19:29.430Z,15.90
2018-03-18T07:21:56.835Z,12.83
2018-03-18T07:24:24.984Z,10.60
2018-03-18T07:26:52.255Z,10.33
2018-03-18T07:29:19.397Z,9.37
2018-03-18T07:31:46.626Z,11.50
2018-03-18T07:34:14.683Z,13.43
2018-03-18T07:36:42.037Z,13.77
2018-03-18T07:39:09.285Z,15.83
2018-03-18T07:41:36.975Z,14.77
2018-03-18T07:44:04.306Z,17.33
2018-03-18T07:46:31.490Z,19.33
2018-03-18T07:48:58.744Z,19.77
2018-03-18T07:51:26.038Z,17.70
2018-03-18T07:53:53.280Z,20.33
2018-03-18T07:56:20.595Z,14.00
2018-03-18T07:58:47.703Z,11.60
2018-03-18T08:01:15.186Z,13.93
2018-03-18T08:03:43.189Z,12.80
2018-03-18T08:06:10.395Z,13.30
2018-03-18T08:08:37.572Z,13.97
2018-03-18T08:11:04.926Z,13.77
2018-03-18T08:13:32.129Z,15.60
2018-03-18T08:15:59.495Z,16.17
2018-03-18T08:18:26.781Z,16.23
2018-03-18T08:20:54.127Z,18.03
2018-03-18T08:23:21.283Z,17.63
2018-03-18T08:25:48.642Z,15.77
2018-03-18T08:28:15.625Z,17.33
2018-03-18T08:30:43.813Z,17.83
2018-03-18T08:33:11.006Z,15.93
2018-03-18T08:35:38.371Z,15.53
2018-03-18T08:38:05.506Z,16.07
2018-03-18T08:40:33.993Z,17.90
2018-03-18T08:43:03.555Z,19.43
2018-03-18T08:45:33.997Z,17.13
2018-03-18T08:48:01.423Z,19.27
2018-03-18T08:50:32.759Z,16.67
2018-03-18T08:52:59.949Z,16.13
2018-03-18T08:55:27.238Z,15.77
2018-03-18T08:57:54.489Z,15.80
2018-03-18T09:00:23.347Z,13.70
2018-03-18T09:02:50.594Z,14.50
2018-03-18T09:05:17.965Z,12.33
2018-03-18T09:07:45.213Z,12.93
2018-03-18T09:10:13.635Z,13.83
2018-03-18T09:12:40.972Z,13.40
2018-03-18T09:15:08.175Z,12.43
2018-03-18T09:17:35.462Z,11.33
2018-03-18T09:20:02.872Z,12.30
2018-03-18T09:22:30.110Z,12.50
2018-03-18T09:24:57.262Z,10.60
2018-03-18T09:27:24.577Z,10.60
2018-03-18T09:29:52.779Z,10.30
2018-03-18T09:32:19.793Z,11.43
2018-03-18T09:34:46.919Z,10.60
2018-03-18T09:37:14.101Z,8.50
2018-03-18T09:39:41.310Z,10.33
2018-03-18T09:42:08.625Z,10.40
2018-03-18T09:44:35.824Z,10.40
2018-03-18T09:47:03.115Z,10.33
2018-03-18T09:49:30.613Z,11.57
2018-03-18T09:51:58.978Z,11.30
2018-03-18T09:54:26.179Z,11.33
2018-03-18T09:56:53.454Z,10.23
2018-03-18T09:59:20.886Z,9.97
2018-03-18T10:01:51.752Z,10.67
2018-03-18T10:04:19.292Z,11.53
2018-03-18T10:06:47.551Z,10.87
2018-03-18T10:09:18.632Z,10.40
2018-03-18T10:11:47.738Z,11.00
2018-03-18T10:14:15.199Z,11.20
2018-03-18T10:16:42.391Z,11.73
2018-03-18T10:19:09.616Z,12.47
2018-03-18T10:21:37.151Z,10.10
2018-03-18T10:24:04.461Z,10.10
2018-03-18T10:26:31.809Z,11.40
2018-03-18T10:28:59.765Z,10.17
2018-03-18T10:31:33.174Z,11.60
2018-03-18T10:34:01.453Z,12.10
2018-03-18T10:36:28.795Z,16.97
2018-03-18T10:38:56.926Z,16.13
2018-03-18T10:41:24.079Z,18.80
2018-03-18T10:43:51.454Z,11.13
2018-03-18T10:46:18.703Z,12.60
2018-03-18T10:48:45.958Z,13.47
2018-03-18T10:51:14.954Z,10.43
2018-03-18T10:53:42.210Z,9.17
2018-03-18T10:56:09.510Z,12.10
2018-03-18T10:58:36.671Z,10.80
2018-03-18T11:01:09.770Z,11.33
2018-03-18T11:03:37.014Z,10.17
2018-03-18T11:06:04.226Z,12.07
2018-03-18T11:08:31.385Z,10.37
2018-03-18T11:11:04.509Z,12.27
2018-03-18T11:13:31.790Z,9.80
2018-03-18T11:15:59.095Z,13.30
2018-03-18T11:18:26.390Z,12.47
2018-03-18T11:20:54.642Z,13.43
2018-03-18T11:23:21.907Z,10.03
2018-03-18T11:25:49.179Z,11.03
2018-03-18T11:28:16.478Z,13.40
2018-03-18T11:30:44.710Z,10.10
2018-03-18T11:33:11.976Z,10.93
2018-03-18T11:35:39.263Z,12.20
2018-03-18T11:38:06.476Z,11.23
2018-03-18T11:40:34.679Z,21.30
2018-03-18T11:43:01.939Z,22.50
2018-03-18T11:45:29.138Z,21.73
2018-03-18T11:47:56.440Z,24.70
2018-03-18T11:50:31.270Z,22.40
2018-03-18T11:52:58.619Z,17.00
2018-03-18T11:55:25.798Z,10.37
2018-03-18T11:57:53.885Z,8.47
2018-03-18T12:00:27.203Z,10.23
2018-03-18T12:02:54.558Z,9.77
2018-03-18T12:05:21.786Z,10.43
2018-03-18T12:07:49.019Z,12.63
2018-03-18T12:10:22.032Z,18.17
2018-03-18T12:12:49.258Z,13.57
2018-03-18T12:15:16.782Z,12.37
2018-03-18T12:17:44.740Z,21.03
2018-03-18T12:20:15.484Z,13.50
2018-03-18T12:22:42.722Z,13.60
2018-03-18T12:25:10.131Z,10.43
2018-03-18T12:27:37.394Z,12.13
2018-03-18T12:30:08.372Z,12.57
2018-03-18T12:32:36.445Z,10.57
2018-03-18T12:35:03.571Z,11.50
2018-03-18T12:37:30.681Z,10.53
2018-03-18T12:40:16.842Z,10.13
2018-03-18T12:45:44.386Z,20.25
2018-03-18T12:48:11.590Z,9.33
2018-03-18T12:50:39.761Z,12.33
2018-03-18T12:53:07.750Z,7.73
2018-03-18T12:55:34.876Z,9.03
2018-03-18T12:58:02.117Z,12.20
2018-03-18T13:00:33.800Z,12.47
2018-03-18T13:03:00.947Z,14.03
2018-03-18T13:05:28.077Z,13.00
2018-03-18T13:07:55.364Z,11.93
2018-03-18T13:10:26.067Z,11.70
2018-03-18T13:12:53.314Z,10.67
2018-03-18T13:15:20.599Z,10.43
2018-03-18T13:17:48.532Z,12.97
2018-03-18T13:20:20.238Z,9.00
2018-03-18T13:22:48.259Z,10.13
2018-03-18T13:25:15.664Z,9.70
2018-03-18T13:27:42.891Z,9.27
2018-03-18T13:30:10.196Z,8.83
2018-03-18T13:32:37.478Z,11.67
2018-03-18T13:35:04.573Z,12.57
2018-03-18T13:37:32.415Z,13.27
2018-03-18T13:40:01.154Z,15.03
2018-03-18T13:42:28.266Z,13.63
2018-03-18T13:44:55.529Z,12.70
2018-03-18T13:47:22.870Z,12.97
2018-03-18T13:49:50.358Z,16.60
2018-03-18T13:52:17.749Z,12.33
2018-03-18T13:54:44.983Z,12.13
2018-03-18T13:57:12.322Z,14.77
2018-03-18T13:59:40.539Z,13.37
2018-03-18T14:02:07.796Z,12.90
2018-03-18T14:04:35.355Z,19.07
2018-03-18T14:07:02.659Z,11.97
2018-03-18T14:09:33.954Z,9.77
2018-03-18T14:12:01.111Z,15.47
2018-03-18T14:14:29.142Z,15.77
2018-03-18T14:16:56.352Z,11.90
2018-03-18T14:19:24.731Z,11.23
2018-03-18T14:21:52.106Z,14.93
2018-03-18T14:24:19.406Z,13.10
2018-03-18T14:26:46.633Z,16.37
2018-03-18T14:29:16.956Z,18.83
2018-03-18T14:31:44.178Z,19.63
2018-03-18T14:34:11.343Z,18.60
2018-03-18T14:36:38.622Z,15.30
2018-03-18T14:39:05.814Z,12.63
2018-03-18T14:41:33.052Z,16.07
2018-03-18T14:44:01.066Z,13.57
2018-03-18T14:46:28.821Z,12.30
2018-03-18T14:48:56.096Z,17.27
2018-03-18T14:51:23.439Z,13.73
2018-03-18T14:53:50.642Z,14.10
2018-03-18T14:56:18.300Z,10.90
2018-03-18T14:58:45.858Z,17.90
2018-03-18T15:01:13.198Z,18.83
2018-03-18T15:03:40.528Z,11.77
2018-03-18T15:06:07.808Z,7.00
2018-03-18T15:08:35.279Z,9.37
2018-03-18T15:11:05.876Z,9.33
2018-03-18T15:13:33.103Z,10.60
2018-03-18T15:16:01.096Z,11.07
2018-03-18T15:18:28.360Z,9.60
2018-03-18T15:20:56.035Z,10.53
2018-03-18T15:23:23.400Z,11.77
2018-03-18T15:25:50.586Z,14.40
2018-03-18T15:28:17.930Z,10.63
2018-03-18T15:30:45.166Z,10.07
2018-03-18T15:33:12.305Z,8.73
2018-03-18T15:35:39.633Z,8.80
2018-03-18T15:41:54.066Z,8.77
2018-03-18T15:44:21.880Z,10.20
2018-03-18T15:46:49.150Z,8.93
2018-03-18T15:49:23.042Z,9.93
2018-03-18T15:51:50.376Z,11.27
2018-03-18T15:54:17.704Z,10.57
2018-03-18T15:56:45.028Z,13.73
2018-03-18T15:59:16.280Z,12.97
2018-03-18T16:01:43.615Z,15.80
2018-03-18T16:04:10.969Z,8.07
2018-03-18T16:06:38.327Z,12.87
2018-03-18T16:09:06.848Z,7.07
2018-03-18T16:11:34.193Z,5.77
2018-03-18T16:14:02.083Z,8.83
2018-03-18T16:16:30.223Z,4.93
2018-03-18T16:18:57.581Z,5.93
2018-03-18T16:21:24.727Z,7.20
2018-03-18T16:23:51.974Z,7.97
2018-03-18T16:26:19.284Z,11.90
2018-03-18T16:28:46.627Z,8.90
2018-03-18T16:31:17.428Z,9.57
2018-03-18T16:33:44.639Z,9.60
2018-03-18T16:36:11.811Z,10.17
2018-03-18T16:38:39.045Z,9.00
2018-03-18T16:41:06.219Z,9.23
2018-03-18T16:43:33.499Z,15.97
2018-03-18T16:46:00.798Z,12.07
2018-03-18T16:48:27.983Z,5.67
2018-03-18T16:50:55.388Z,5.63
2018-03-18T16:53:22.638Z,5.40
2018-03-18T16:55:53.386Z,4.80
2018-03-18T16:58:21.876Z,4.00
2018-03-18T17:00:49.348Z,4.77
2018-03-18T17:03:16.566Z,4.20
2018-03-18T17:05:43.929Z,7.50
2018-03-18T17:08:11.820Z,10.00
2018-03-18T17:10:40.211Z,7.00
2018-03-18T17:13:08.169Z,8.50
2018-03-18T17:15:35.496Z,9.07
2018-03-18T17:18:03.290Z,9.53
2018-03-18T17:20:31.970Z,13.23
2018-03-18T17:22:59.384Z,9.20
2018-03-18T17:25:26.870Z,8.77
2018-03-18T17:27:55.615Z,5.87
2018-03-18T17:30:23.207Z,4.80
2018-03-18T17:32:50.954Z,10.00
2018-03-18T17:35:18.355Z,7.13
2018-03-18T17:37:45.692Z,7.53
2018-03-18T17:40:13.935Z,7.37
2018-03-18T17:42:41.238Z,11.00
2018-03-18T17:45:27.721Z,8.63
2018-03-18T17:48:12.818Z,8.33
2018-03-18T17:50:59.582Z,5.97
2018-03-18T17:53:44.782Z,5.07
2018-03-18T17:56:29.903Z,7.13
2018-03-18T17:59:01.632Z,9.13
2018-03-18T18:01:28.994Z,10.57
2018-03-18T18:03:57.618Z,14.90
2018-03-18T18:06:24.908Z,11.40
2018-03-18T18:08:53.338Z,9.87
2018-03-18T18:11:20.674Z,4.03
2018-03-18T18:13:49.684Z,6.13
2018-03-18T18:16:16.835Z,5.07
2018-03-18T18:18:45.883Z,4.80
2018-03-18T18:21:13.602Z,5.77
2018-03-18T18:23:40.991Z,3.97
2018-03-18T18:26:08.174Z,5.50
2018-03-18T18:28:41.226Z,11.67
2018-03-18T18:31:08.559Z,6.40
2018-03-18T18:33:35.842Z,5.10
2018-03-18T18:36:03.052Z,5.93
2018-03-18T18:38:31.923Z,5.20
2018-03-18T18:40:59.515Z,3.30
2018-03-18T18:43:27.126Z,5.70
2018-03-18T18:45:54.804Z,6.70
2018-03-18T18:48:22.252Z,6.03
2018-03-18T18:50:50.438Z,6.33
2018-03-18T18:53:18.482Z,5.93
2018-03-18T18:55:47.583Z,4.53
2018-03-18T18:58:14.738Z,4.63
2018-03-18T19:00:43.482Z,4.20
2018-03-18T19:03:10.795Z,3.77
2018-03-18T19:05:38.127Z,4.50
2018-03-18T19:08:05.463Z,5.63
2018-03-18T19:10:35.885Z,3.40
2018-03-18T19:13:04.158Z,5.07
2018-03-18T19:15:34.292Z,2.80
2018-03-18T19:18:05.817Z,5.03
2018-03-18T19:20:34.926Z,4.10
2018-03-18T19:23:02.943Z,5.10
2018-03-18T19:25:30.277Z,4.57
2018-03-18T19:27:57.495Z,3.93
2018-03-18T19:30:27.868Z,4.20
2018-03-18T19:32:55.268Z,3.83
2018-03-18T19:35:23.647Z,3.13
2018-03-18T19:37:50.956Z,3.67
2018-03-18T19:40:22.167Z,5.00
2018-03-18T19:42:49.413Z,5.53
2018-03-18T19:45:17.673Z,6.57
2018-03-18T19:47:45.168Z,7.87
2018-03-18T19:50:12.582Z,8.30
2018-03-18T19:52:39.936Z,6.93
2018-03-18T19:55:08.316Z,7.57
2018-03-18T19:57:36.213Z,7.43
2018-03-18T20:00:04.752Z,8.27
2018-03-18T20:02:32.074Z,9.57
2018-03-18T20:04:59.312Z,8.97
2018-03-18T20:07:27.511Z,10.07
2018-03-18T20:09:55.099Z,9.87
2018-03-18T20:12:22.343Z,12.60
2018-03-18T20:14:49.709Z,13.77
2018-03-18T20:17:17.048Z,9.67
2018-03-18T20:19:44.392Z,7.73
2018-03-18T20:22:12.333Z,9.60
2018-03-18T20:24:39.691Z,9.73
2018-03-18T20:27:07.067Z,10.57
2018-03-18T20:29:34.436Z,10.60
2018-03-18T20:32:01.827Z,9.77
2018-03-18T20:34:29.254Z,11.00
2018-03-18T20:36:56.490Z,10.70
2018-03-18T20:39:23.739Z,10.87
2018-03-18T20:41:50.988Z,11.93
2018-03-18T20:44:19.045Z,11.43
2018-03-18T20:46:46.421Z,15.20
2018-03-18T20:49:13.894Z,12.30
2018-03-18T20:51:41.256Z,11.57
2018-03-18T20:54:08.550Z,10.80
2018-03-18T20:56:35.823Z,11.87
2018-03-18T20:59:03.191Z,10.07
2018-03-18T21:01:31.152Z,11.80
2018-03-18T21:03:58.381Z,9.70
2018-03-18T21:06:25.533Z,10.23
2018-03-18T21:08:53.813Z,8.10
2018-03-18T21:11:20.934Z,9.50
2018-03-18T21:13:48.110Z,10.30
2018-03-18T21:16:15.686Z,10.50
2018-03-18T21:18:43.059Z,11.83
2018-03-18T21:21:10.406Z,9.50
2018-03-18T21:23:37.737Z,12.23
2018-03-18T21:26:05.694Z,13.30
2018-03-18T21:28:33.122Z,13.00
2018-03-18T21:31:01.115Z,12.50
2018-03-18T21:33:28.382Z,13.57
2018-03-18T21:35:55.610Z,12.40
2018-03-18T21:38:22.862Z,11.03
2018-03-18T21:40:50.364Z,14.47
2018-03-18T21:43:17.647Z,13.53
2018-03-18T21:45:44.855Z,12.27
2018-03-18T21:48:13.910Z,12.43
2018-03-18T21:50:41.106Z,11.60
2018-03-18T21:53:08.376Z,10.07
2018-03-18T21:55:35.711Z,11.47
2018-03-18T21:58:03.180Z,11.30
2018-03-18T22:00:30.396Z,13.13
2018-03-18T22:02:57.650Z,12.50
2018-03-18T22:05:25.075Z,12.13
2018-03-18T22:07:52.381Z,9.27
2018-03-18T22:10:19.578Z,12.87
2018-03-18T22:12:46.939Z,12.20
2018-03-18T22:15:14.219Z,12.07
2018-03-18T22:17:41.506Z,11.83
2018-03-18T22:20:11.809Z,12.60
2018-03-18T22:22:39.060Z,10.00
2018-03-18T22:25:06.307Z,10.33
2018-03-18T22:27:33.554Z,13.40
2018-03-18T22:30:01.786Z,12.80
2018-03-18T22:32:29.121Z,11.37
2018-03-18T22:34:56.880Z,13.10
2018-03-18T22:37:24.259Z,10.13
2018-03-18T22:39:52.486Z,10.50
2018-03-18T22:42:19.723Z,10.60
2018-03-18T22:44:47.062Z,12.13
2018-03-18T22:47:14.420Z,11.53
2018-03-18T22:49:42.800Z,11.80
2018-03-18T22:52:09.893Z,10.90
2018-03-18T22:54:37.275Z,12.07
2018-03-18T22:57:04.429Z,10.50
2018-03-18T22:59:34.566Z,10.80
2018-03-18T23:02:01.782Z,11.33
2018-03-18T23:04:29.107Z,9.77
2018-03-18T23:06:56.302Z,11.63
2018-03-18T23:09:23.612Z,11.17
2018-03-18T23:11:51.011Z,10.77
2018-03-18T23:14:18.263Z,9.80
2018-03-18T23:16:46.190Z,10.37
2018-03-18T23:19:14.670Z,11.00
2018-03-18T23:21:41.955Z,11.23
2018-03-18T23:24:09.165Z,7.10
2018-03-18T23:26:36.426Z,9.97
2018-03-18T23:29:04.810Z,11.70
2018-03-18T23:31:32.190Z,9.90
2018-03-18T23:34:00.214Z,11.87
2018-03-18T23:36:27.425Z,10.63
2018-03-18T23:38:58.672Z,11.47
2018-03-18T23:41:26.042Z,9.33
2018-03-18T23:43:53.358Z,9.50
2018-03-18T23:46:20.670Z,11.47
2018-03-18T23:48:49.051Z,11.60
2018-03-18T23:51:16.288Z,7.70
2018-03-18T23:53:43.612Z,9.50
2018-03-18T23:56:10.886Z,8.23
2018-03-18T23:58:39.386Z,11.23
